• pl
  • eng

Awiacja
Kliknij na pogrubioną czerwoną nazwę, aby odkodować depeszę. 04:31 20.10.2017
  • WIND
  • SIGNIFICANT EURO
  • SIGNIFICANT
  • SIGMET
  • AIRMET
  • TAF FC
  • TAF FT
  • METAR GG30
  • METAR GG00


METAR EPBY 200230Z 09004KT 7000 OVC008 10/10 Q1017 =

METAR EPGD 200230Z 13009KT 8000 OVC003 10/09 Q1018 =

METAR EPKK 200230Z VRB01KT 2200 BR SCT002 08/07 Q1017 =

METAR EPKT 200230Z 03001KT 0300 R27/1600D FG NSC 03/03 Q1017 =

METAR EPLB 200230Z 03003KT 9999 SCT011 OVC019 10/09 Q1018 =

METAR EPLL 200230Z 14003KT 090V170 1000 R25/1900N BR OVC002 11/11
Q1017 =

METAR EPMO 200230Z 09006KT 9999 OVC025 11/11 Q1018 =

METAR EPPO 200230Z 12007KT 0200 R28/0600 FG VV002 11/11 Q1016 =

METAR EPRA 200230Z NIL=

METAR EPRZ 200230Z 35003KT 330V040 0100 R27/0350N FG VV001 10/10
Q1017 =

METAR EPSC 200230Z 12011KT 2000 BR OVC002 11/11 Q1014 =

METAR EPSY 200230Z NIL=

METAR EPWA 200230Z 18001KT 9999 BKN026 11/10 Q1018 TEMPO 3000 BR=

METAR EPWR 200230Z 15008KT 0100 R29/0400N FG VV000 10/10 Q1016 =

METAR EPZG 200230Z 09005KT 060V130 0050 R24/0200N FG OVC001 11/11
Q1015 =
Awiacja.imgw.pl jest pogodowym serwisem informacyjnym
Instytutu Meteorologii i Gospodarki Wodnej Państwowego Instytutu Badawczego.
Copyright IMGW PIB 2009-2011© Wszelkie prawa zastrzeżone.